Attu

KL  EN  DA
ASIAQ
Weather Now GREENLAND SURVEY
Updated [WGT/WGST] Temperature [°C] Wind [m/s] Air pressure [hPa] Relative humidity [%] Precipitation [mm]
Present Wind chill Speed Max
21.01 19:00-10,8-20,58,2 ⇗10,899767n/a
21.01 18:00-10,8-21,09,3 ⇗11,399771n/a
21.01 17:00-10,8-21,29,8 ⇗11,899774n/a
21.01 16:00-10,5-20,69,3 ⇗11,899761n/a
21.01 15:00-10,3-20,69,8 ⇗11,899667n/a
21.01 14:00-10,2-20,49,8 ⇗12,999660n/a
21.01 13:00-9,9-20,711,3 ⇗14,999670n/a
21.01 12:00-10,4-18,86,2 ⇑11,399584n/a
21.01 11:00-9,9-20,711,3 ⇗16,099568n/a
21.01 10:00-9,8-22,517,5 ⇑21,699485n/a
21.01 09:00-9,6-21,514,9 ⇑18,099465n/a
21.01 08:00-9,8-21,614,4 ⇗17,599473n/a
21.01 07:00-9,8-21,313,4 ⇗17,099364n/a
21.01 06:00-9,4-20,813,4 ⇗17,599361n/a
21.01 05:00-9,9-21,312,9 ⇗16,599373n/a
21.01 04:00-9,3-20,813,9 ⇗17,099259n/a
21.01 03:00-9,4-21,114,4 ⇗17,599075n/a
21.01 02:00-9,5-21,414,9 ⇗19,099066n/a
21.01 01:00-9,3-21,114,9 ⇗18,598976n/a
21.01 00:00-9,3-20,813,9 ⇗17,098974n/a
20.01 23:00-9,4-20,913,9 ⇗17,098872n/a
20.01 22:00-9,1-20,413,4 ⇗18,098875n/a
20.01 21:00-9,0-19,511,3 ⇗15,498868n/a
20.01 20:00-8,3-18,711,8 ⇗15,498872n/a
20.01 19:00-8,4-18,510,8 ⇗14,498868n/a
Position: (67.78416666666,-53.965)

[Back]